createdAt,value
2023-05-02T00:00:53.355Z,532.00
2023-05-02T00:01:53.423Z,532.00
2023-05-02T00:02:53.722Z,522.00
2023-05-02T00:03:53.544Z,529.00
2023-05-02T00:04:53.545Z,529.00
2023-05-02T00:05:53.749Z,526.00
2023-05-02T00:06:53.684Z,526.00
2023-05-02T00:07:53.639Z,527.00
2023-05-02T00:08:53.703Z,525.00
2023-05-02T00:09:53.765Z,527.00
2023-05-02T00:10:54.245Z,525.00
2023-05-02T00:11:53.867Z,523.00
2023-05-02T00:12:54.003Z,531.00
2023-05-02T00:13:53.942Z,526.00
2023-05-02T00:14:54.015Z,528.00
2023-05-02T00:15:54.236Z,522.00
2023-05-02T00:16:54.129Z,526.00
2023-05-02T00:17:54.164Z,527.00
2023-05-02T00:18:54.176Z,525.00
2023-05-02T00:19:54.221Z,525.00
2023-05-02T00:20:54.753Z,531.00
2023-05-02T00:21:54.305Z,528.00
2023-05-02T00:22:54.357Z,527.00
2023-05-02T00:23:54.407Z,526.00
2023-05-02T00:24:54.430Z,524.00
2023-05-02T00:25:54.741Z,524.00
2023-05-02T00:26:54.531Z,529.00
2023-05-02T00:27:54.630Z,522.00
2023-05-02T00:28:54.650Z,529.00
2023-05-02T00:29:54.672Z,524.00
2023-05-02T00:30:54.777Z,525.00
2023-05-02T00:31:54.774Z,524.00
2023-05-02T00:32:54.835Z,531.00
2023-05-02T00:33:54.863Z,526.00
2023-05-02T00:34:54.906Z,528.00
2023-05-02T00:35:55.267Z,526.00
2023-05-02T00:36:55.010Z,533.00
2023-05-02T00:37:55.082Z,532.00
2023-05-02T00:38:55.071Z,532.00
2023-05-02T00:39:55.121Z,528.00
2023-05-02T00:40:55.264Z,529.00
2023-05-02T00:41:55.164Z,529.00
2023-05-02T00:42:55.178Z,526.00
2023-05-02T00:43:55.200Z,526.00
2023-05-02T00:44:55.244Z,527.00
2023-05-02T00:45:55.775Z,526.00
2023-05-02T00:46:55.423Z,525.00
2023-05-02T00:47:55.401Z,523.00
2023-05-02T00:48:55.440Z,525.00
2023-05-02T00:49:55.496Z,525.00
2023-05-02T00:50:55.741Z,530.00
2023-05-02T00:51:56.257Z,527.00
2023-05-02T00:52:55.609Z,522.00
2023-05-02T00:53:55.653Z,531.00
2023-05-02T00:54:55.708Z,525.00
2023-05-02T00:55:56.246Z,524.00
2023-05-02T00:56:55.813Z,527.00
2023-05-02T00:57:55.865Z,527.00
2023-05-02T00:58:55.905Z,528.00
2023-05-02T00:59:55.963Z,525.00
2023-05-02T01:00:55.995Z,524.00
2023-05-02T01:01:56.091Z,523.00
2023-05-02T01:02:56.148Z,523.00
2023-05-02T01:03:56.255Z,531.00
2023-05-02T01:04:56.169Z,522.00
2023-05-02T01:05:56.245Z,527.00
2023-05-02T01:06:56.266Z,525.00
2023-05-02T01:07:56.335Z,524.00
2023-05-02T01:08:56.372Z,530.00
2023-05-02T01:09:56.484Z,529.00
2023-05-02T01:10:56.758Z,529.00
2023-05-02T01:11:56.502Z,528.00
2023-05-02T01:12:56.539Z,532.00
2023-05-02T01:13:56.607Z,524.00
2023-05-02T01:14:56.634Z,526.00
2023-05-02T01:15:56.801Z,526.00
2023-05-02T01:16:56.726Z,522.00
2023-05-02T01:17:56.878Z,525.00
2023-05-02T01:18:56.822Z,526.00
2023-05-02T01:19:56.936Z,525.00
2023-05-02T01:20:57.291Z,529.00
2023-05-02T01:21:56.946Z,531.00
2023-05-02T01:22:57.022Z,527.00
2023-05-02T01:23:57.055Z,524.00
2023-05-02T01:24:57.113Z,528.00
2023-05-02T01:25:57.277Z,524.00
2023-05-02T01:26:57.212Z,525.00
2023-05-02T01:27:57.249Z,532.00
2023-05-02T01:28:57.272Z,525.00
2023-05-02T01:29:57.404Z,528.00
2023-05-02T01:30:57.830Z,528.00
2023-05-02T01:31:57.507Z,522.00
2023-05-02T01:32:57.469Z,526.00
2023-05-02T01:33:57.494Z,521.00
2023-05-02T01:34:57.557Z,525.00
2023-05-02T01:35:57.599Z,523.00
2023-05-02T01:36:57.783Z,523.00
2023-05-02T01:37:57.707Z,519.00
2023-05-02T01:38:57.733Z,524.00
2023-05-02T01:39:57.896Z,528.00
2023-05-02T01:40:57.841Z,524.00
2023-05-02T01:41:57.905Z,523.00
2023-05-02T01:42:57.932Z,525.00
2023-05-02T01:43:57.978Z,523.00
2023-05-02T01:44:58.068Z,522.00
2023-05-02T01:45:58.079Z,520.00
2023-05-02T01:46:58.183Z,521.00
2023-05-02T01:47:58.240Z,524.00
2023-05-02T01:48:58.230Z,523.00
2023-05-02T01:49:58.499Z,518.00
2023-05-02T01:50:58.375Z,517.00
2023-05-02T01:51:58.356Z,521.00
2023-05-02T01:52:58.410Z,527.00
2023-05-02T01:53:58.458Z,527.00
2023-05-02T01:54:58.504Z,524.00
2023-05-02T01:55:58.789Z,526.00
2023-05-02T01:56:58.582Z,525.00
2023-05-02T01:57:58.624Z,523.00
2023-05-02T01:58:58.777Z,522.00
2023-05-02T01:59:58.897Z,519.00
2023-05-02T02:00:58.877Z,521.00
2023-05-02T02:01:58.865Z,519.00
2023-05-02T02:02:58.906Z,515.00
2023-05-02T02:03:58.964Z,522.00
2023-05-02T02:04:58.985Z,520.00
2023-05-02T02:05:59.379Z,519.00
2023-05-02T02:06:59.101Z,524.00
2023-05-02T02:07:59.116Z,523.00
2023-05-02T02:08:59.167Z,524.00
2023-05-02T02:09:59.465Z,520.00
2023-05-02T02:10:59.268Z,517.00
2023-05-02T02:11:59.291Z,519.00
2023-05-02T02:12:59.389Z,522.00
2023-05-02T02:13:59.424Z,517.00
2023-05-02T02:14:59.431Z,519.00
2023-05-02T02:15:59.494Z,519.00
2023-05-02T02:16:59.931Z,515.00
2023-05-02T02:17:59.631Z,521.00
2023-05-02T02:18:59.644Z,519.00
2023-05-02T02:20:00.048Z,518.00
2023-05-02T02:20:59.785Z,516.00
2023-05-02T02:21:59.775Z,517.00
2023-05-02T02:22:59.860Z,517.00
2023-05-02T02:23:59.898Z,514.00
2023-05-02T02:24:59.963Z,513.00
2023-05-02T02:25:59.990Z,517.00
2023-05-02T02:27:00.052Z,518.00
2023-05-02T02:28:00.138Z,517.00
2023-05-02T02:29:00.139Z,520.00
2023-05-02T02:30:00.485Z,518.00
2023-05-02T02:31:00.256Z,519.00
2023-05-02T02:32:00.298Z,515.00
2023-05-02T02:33:00.398Z,518.00
2023-05-02T02:34:00.398Z,518.00
2023-05-02T02:35:00.413Z,521.00
2023-05-02T02:36:00.461Z,519.00
2023-05-02T02:37:00.764Z,526.00
2023-05-02T02:38:00.557Z,519.00
2023-05-02T02:39:00.582Z,520.00
2023-05-02T02:40:01.073Z,523.00
2023-05-02T02:41:00.655Z,519.00
2023-05-02T02:42:00.737Z,524.00
2023-05-02T02:43:00.728Z,518.00
2023-05-02T02:44:00.753Z,522.00
2023-05-02T02:45:00.826Z,521.00
2023-05-02T02:46:00.922Z,519.00
2023-05-02T02:47:00.927Z,517.00
2023-05-02T02:48:00.985Z,517.00
2023-05-02T02:49:01.029Z,523.00
2023-05-02T02:50:01.316Z,519.00
2023-05-02T02:51:01.111Z,521.00
2023-05-02T02:52:01.144Z,522.00
2023-05-02T02:53:01.199Z,521.00
2023-05-02T02:54:01.246Z,518.00
2023-05-02T02:55:01.274Z,520.00
2023-05-02T02:56:01.328Z,520.00
2023-05-02T02:57:01.373Z,521.00
2023-05-02T02:58:01.399Z,525.00
2023-05-02T02:59:01.448Z,518.00
2023-05-02T03:00:01.710Z,520.00
2023-05-02T03:01:01.505Z,519.00
2023-05-02T03:02:01.697Z,518.00
2023-05-02T03:03:01.829Z,519.00
2023-05-02T03:04:01.707Z,522.00
2023-05-02T03:05:01.674Z,522.00
2023-05-02T03:06:01.735Z,520.00
2023-05-02T03:07:01.788Z,523.00
2023-05-02T03:08:01.851Z,520.00
2023-05-02T03:09:01.895Z,521.00
2023-05-02T03:10:02.160Z,519.00
2023-05-02T03:11:01.971Z,521.00
2023-05-02T03:12:02.011Z,517.00
2023-05-02T03:13:02.045Z,520.00
2023-05-02T03:14:02.081Z,518.00
2023-05-02T03:15:02.170Z,519.00
2023-05-02T03:16:02.288Z,522.00
2023-05-02T03:17:02.234Z,521.00
2023-05-02T03:18:02.295Z,520.00
2023-05-02T03:19:02.308Z,520.00
2023-05-02T03:20:02.501Z,520.00
2023-05-02T03:21:02.469Z,519.00
2023-05-02T03:22:02.782Z,520.00
2023-05-02T03:23:02.516Z,520.00
2023-05-02T03:24:02.526Z,514.00
2023-05-02T03:25:02.592Z,517.00
2023-05-02T03:26:02.624Z,522.00
2023-05-02T03:27:02.674Z,519.00
2023-05-02T03:28:02.724Z,520.00
2023-05-02T03:29:02.776Z,521.00
2023-05-02T03:30:02.975Z,526.00
2023-05-02T03:31:02.866Z,523.00
2023-05-02T03:32:03.068Z,517.00
2023-05-02T03:33:02.991Z,522.00
2023-05-02T03:34:03.001Z,515.00
2023-05-02T03:35:03.038Z,514.00
2023-05-02T03:36:03.128Z,522.00
2023-05-02T03:37:03.171Z,520.00
2023-05-02T03:38:03.207Z,517.00
2023-05-02T03:39:03.250Z,525.00
2023-05-02T03:40:03.403Z,521.00
2023-05-02T03:41:03.362Z,520.00
2023-05-02T03:42:03.791Z,521.00
2023-05-02T03:43:03.449Z,520.00
2023-05-02T03:44:03.485Z,518.00
2023-05-02T03:45:03.540Z,522.00
2023-05-02T03:46:03.613Z,520.00
2023-05-02T03:47:03.722Z,521.00
2023-05-02T03:48:03.711Z,521.00
2023-05-02T03:49:03.700Z,513.00
2023-05-02T03:50:03.781Z,518.00
2023-05-02T03:51:03.812Z,518.00
2023-05-02T03:52:03.881Z,512.00
2023-05-02T03:53:03.928Z,518.00
2023-05-02T03:54:03.921Z,517.00
2023-05-02T03:55:03.992Z,516.00
2023-05-02T03:56:04.011Z,520.00
2023-05-02T03:57:04.053Z,518.00
2023-05-02T03:58:04.125Z,515.00
2023-05-02T03:59:04.175Z,511.00
2023-05-02T04:00:04.235Z,514.00
2023-05-02T04:01:04.258Z,512.00
2023-05-02T04:02:04.303Z,514.00
2023-05-02T04:03:04.352Z,515.00
2023-05-02T04:04:04.424Z,511.00
2023-05-02T04:05:04.425Z,508.00
2023-05-02T04:06:04.467Z,513.00
2023-05-02T04:07:04.540Z,509.00
2023-05-02T04:08:04.547Z,508.00
2023-05-02T04:09:04.624Z,511.00
2023-05-02T04:10:04.702Z,508.00
2023-05-02T04:11:04.716Z,510.00
2023-05-02T04:12:04.749Z,511.00
2023-05-02T04:13:04.776Z,513.00
2023-05-02T04:14:04.832Z,511.00
2023-05-02T04:15:04.875Z,516.00
2023-05-02T04:16:04.904Z,513.00
2023-05-02T04:17:05.397Z,509.00
2023-05-02T04:18:05.024Z,511.00
2023-05-02T04:19:05.046Z,511.00
2023-05-02T04:20:05.812Z,513.00
2023-05-02T04:21:05.135Z,509.00
2023-05-02T04:22:05.191Z,513.00
2023-05-02T04:23:05.258Z,511.00
2023-05-02T04:24:05.285Z,514.00
2023-05-02T04:25:05.306Z,511.00
2023-05-02T04:26:05.357Z,511.00
2023-05-02T04:27:05.828Z,512.00
2023-05-02T04:28:05.442Z,511.00
2023-05-02T04:29:05.761Z,509.00
2023-05-02T04:30:05.508Z,512.00
2023-05-02T04:31:05.617Z,513.00
2023-05-02T04:32:05.633Z,508.00
2023-05-02T04:33:05.702Z,511.00
2023-05-02T04:34:05.700Z,510.00
2023-05-02T04:35:05.738Z,515.00
2023-05-02T04:36:05.759Z,511.00
2023-05-02T04:37:05.846Z,511.00
2023-05-02T04:38:05.849Z,508.00
2023-05-02T04:39:05.899Z,514.00
2023-05-02T04:40:05.954Z,511.00
2023-05-02T04:41:09.141Z,510.00
2023-05-02T04:42:05.996Z,515.00
2023-05-02T04:43:06.116Z,515.00
2023-05-02T04:44:05.958Z,514.00
2023-05-02T04:45:06.010Z,509.00
2023-05-02T04:46:05.994Z,511.00
2023-05-02T04:47:05.970Z,507.00
2023-05-02T04:48:06.034Z,507.00
2023-05-02T04:49:05.965Z,504.00
2023-05-02T04:50:05.924Z,509.00
2023-05-02T04:51:05.959Z,509.00
2023-05-02T04:52:05.926Z,512.00
2023-05-02T04:53:05.946Z,508.00
2023-05-02T04:54:05.916Z,508.00
2023-05-02T04:55:05.912Z,508.00
2023-05-02T04:56:05.934Z,512.00
2023-05-02T04:57:05.920Z,516.00
2023-05-02T04:58:05.919Z,516.00
2023-05-02T04:59:05.899Z,508.00
2023-05-02T05:00:05.890Z,511.00
2023-05-02T05:01:05.874Z,513.00
2023-05-02T05:02:05.962Z,514.00
2023-05-02T05:03:05.963Z,509.00
2023-05-02T05:04:05.931Z,542.00
2023-05-02T05:05:05.910Z,551.00
2023-05-02T05:06:05.904Z,565.00
2023-05-02T05:07:05.827Z,581.00
2023-05-02T05:08:05.865Z,561.00
2023-05-02T05:09:05.829Z,535.00
2023-05-02T05:10:05.824Z,515.00
2023-05-02T05:11:05.797Z,503.00
2023-05-02T05:12:05.835Z,500.00
2023-05-02T05:13:05.806Z,500.00
2023-05-02T05:14:05.800Z,500.00
2023-05-02T05:15:05.792Z,503.00
2023-05-02T05:16:05.823Z,504.00
2023-05-02T05:17:05.877Z,504.00
2023-05-02T05:18:05.881Z,510.00
2023-05-02T05:19:05.750Z,513.00
2023-05-02T05:20:06.347Z,507.00
2023-05-02T05:21:05.764Z,514.00
2023-05-02T05:22:05.719Z,510.00
2023-05-02T05:23:05.733Z,506.00
2023-05-02T05:24:05.774Z,500.00
2023-05-02T05:25:05.793Z,505.00
2023-05-02T05:26:05.790Z,508.00
2023-05-02T05:27:05.839Z,515.00
2023-05-02T05:28:05.836Z,507.00
2023-05-02T05:29:05.872Z,500.00
2023-05-02T05:30:05.934Z,500.00
2023-05-02T05:31:05.985Z,499.00
2023-05-02T05:32:06.118Z,509.00
2023-05-02T05:33:06.009Z,508.00
2023-05-02T05:34:06.030Z,506.00
2023-05-02T05:35:06.011Z,513.00
2023-05-02T05:36:05.991Z,507.00
2023-05-02T05:37:06.052Z,515.00
2023-05-02T05:38:06.015Z,512.00
2023-05-02T05:39:06.048Z,512.00
2023-05-02T05:40:06.078Z,520.00
2023-05-02T05:41:06.066Z,527.00
2023-05-02T05:42:06.123Z,531.00
2023-05-02T05:43:06.155Z,528.00
2023-05-02T05:44:06.165Z,534.00
2023-05-02T05:45:06.189Z,552.00
2023-05-02T05:46:06.259Z,547.00
2023-05-02T05:47:06.370Z,568.00
2023-05-02T05:48:06.313Z,573.00
2023-05-02T05:49:06.295Z,573.00
2023-05-02T05:50:06.320Z,573.00
2023-05-02T05:51:06.358Z,581.00
2023-05-02T05:52:06.382Z,602.00
2023-05-02T05:53:06.449Z,618.00
2023-05-02T05:54:06.455Z,590.00
2023-05-02T05:55:06.465Z,573.00
2023-05-02T05:56:06.489Z,552.00
2023-05-02T05:57:06.480Z,587.00
2023-05-02T05:58:06.508Z,595.00
2023-05-02T05:59:06.553Z,635.00
2023-05-02T06:00:06.566Z,606.00
2023-05-02T06:01:06.559Z,626.00
2023-05-02T06:02:06.608Z,656.00
2023-05-02T06:03:08.145Z,721.00
2023-05-02T06:04:06.715Z,792.00
2023-05-02T06:05:06.664Z,807.00
2023-05-02T06:06:06.646Z,801.00
2023-05-02T06:07:06.557Z,863.00
2023-05-02T06:08:06.556Z,953.00
2023-05-02T06:09:06.530Z,1057.00
2023-05-02T06:10:06.518Z,1131.00
2023-05-02T06:11:06.524Z,1192.00
2023-05-02T06:12:06.531Z,1246.00
2023-05-02T06:13:06.518Z,1317.00
2023-05-02T06:14:06.486Z,1342.00
2023-05-02T06:15:06.480Z,1440.00
2023-05-02T06:16:06.527Z,1470.00
2023-05-02T06:17:06.482Z,1482.00
2023-05-02T06:18:06.498Z,1519.00
2023-05-02T06:19:06.437Z,1561.00
2023-05-02T06:20:06.480Z,1620.00
2023-05-02T06:21:06.493Z,1654.00
2023-05-02T06:22:06.429Z,1682.00
2023-05-02T06:23:06.602Z,1692.00
2023-05-02T06:24:06.962Z,1729.00
2023-05-02T06:25:06.406Z,1752.00
2023-05-02T06:26:06.424Z,1790.00
2023-05-02T06:27:06.403Z,1823.00
2023-05-02T06:28:06.421Z,1869.00
2023-05-02T06:29:06.382Z,1898.00
2023-05-02T06:30:06.388Z,1927.00
2023-05-02T06:31:06.500Z,1960.00
2023-05-02T06:32:06.580Z,2005.00
2023-05-02T06:33:06.491Z,2023.00
2023-05-02T06:34:06.374Z,2039.00
2023-05-02T06:35:06.333Z,2058.00
2023-05-02T06:36:06.359Z,2070.00
2023-05-02T06:37:06.339Z,2120.00
2023-05-02T06:38:06.370Z,2128.00
2023-05-02T06:39:06.351Z,2150.00
2023-05-02T06:40:06.331Z,2167.00
2023-05-02T06:41:06.322Z,2192.00
2023-05-02T06:42:06.340Z,2229.00
2023-05-02T06:43:06.295Z,2235.00
2023-05-02T06:44:06.289Z,2262.00
2023-05-02T06:45:06.308Z,2276.00
2023-05-02T06:46:06.298Z,2295.00
2023-05-02T06:47:06.332Z,2302.00
2023-05-02T06:48:06.306Z,2316.00
2023-05-02T06:49:06.274Z,2333.00
2023-05-02T06:50:06.239Z,2332.00
2023-05-02T06:51:06.257Z,2362.00
2023-05-02T06:52:06.272Z,2393.00
2023-05-02T06:53:06.220Z,2408.00
2023-05-02T06:54:06.201Z,2426.00
2023-05-02T06:55:06.232Z,2423.00
2023-05-02T06:56:06.190Z,2422.00
2023-05-02T06:57:06.232Z,2378.00
2023-05-02T06:58:06.187Z,2356.00
2023-05-02T06:59:06.187Z,2324.00
2023-05-02T07:00:06.230Z,2305.00
2023-05-02T07:01:06.216Z,2302.00
2023-05-02T07:02:06.139Z,2296.00
2023-05-02T07:03:06.214Z,2289.00
2023-05-02T07:04:06.198Z,2304.00
2023-05-02T07:05:06.183Z,2293.00
2023-05-02T07:06:06.143Z,2289.00
2023-05-02T07:07:06.116Z,2300.00
2023-05-02T07:08:06.105Z,2298.00
2023-05-02T07:09:06.100Z,2310.00
2023-05-02T07:10:06.132Z,2301.00
2023-05-02T07:11:06.168Z,2302.00
2023-05-02T07:12:07.038Z,2298.00
2023-05-02T07:13:06.825Z,2296.00
2023-05-02T07:14:06.246Z,2294.00
2023-05-02T07:15:06.258Z,2297.00
2023-05-02T07:16:06.347Z,2284.00
2023-05-02T07:17:06.424Z,2291.00
2023-05-02T07:18:06.436Z,2286.00
2023-05-02T07:19:06.381Z,2291.00
2023-05-02T07:20:06.431Z,2293.00
2023-05-02T07:21:06.452Z,2280.00
2023-05-02T07:22:06.511Z,2291.00
2023-05-02T07:23:06.557Z,2281.00
2023-05-02T07:24:06.595Z,2288.00
2023-05-02T07:25:06.615Z,2281.00
2023-05-02T07:26:06.658Z,2290.00
2023-05-02T07:27:06.670Z,2280.00
2023-05-02T07:28:06.696Z,2287.00
2023-05-02T07:29:06.716Z,2279.00
2023-05-02T07:30:06.783Z,2280.00
2023-05-02T07:31:06.812Z,2274.00
2023-05-02T07:32:06.864Z,2275.00
2023-05-02T07:33:06.849Z,2272.00
2023-05-02T07:34:06.886Z,2274.00
2023-05-02T07:35:06.911Z,2272.00
2023-05-02T07:36:06.904Z,2272.00
2023-05-02T07:37:06.950Z,2258.00
2023-05-02T07:38:06.965Z,2268.00
2023-05-02T07:39:06.955Z,2275.00
2023-05-02T07:40:07.013Z,2270.00
2023-05-02T07:41:07.044Z,2260.00
2023-05-02T07:42:07.047Z,2269.00
2023-05-02T07:43:07.940Z,2275.00
2023-05-02T07:44:07.057Z,2273.00
2023-05-02T07:45:07.111Z,2283.00
2023-05-02T07:46:07.211Z,2275.00
2023-05-02T07:47:07.117Z,2267.00
2023-05-02T07:48:07.219Z,2258.00
2023-05-02T07:49:07.204Z,2176.00
2023-05-02T07:50:07.620Z,2073.00
2023-05-02T07:51:07.234Z,1757.00
2023-05-02T07:52:07.323Z,1764.00
2023-05-02T07:53:07.331Z,1784.00
2023-05-02T07:54:07.395Z,1673.00
2023-05-02T07:55:07.467Z,1379.00
2023-05-02T07:56:07.461Z,934.00
2023-05-02T07:57:07.516Z,758.00
2023-05-02T07:58:07.546Z,749.00
2023-05-02T07:59:07.541Z,686.00
2023-05-02T08:00:07.598Z,706.00
2023-05-02T08:01:07.633Z,781.00
2023-05-02T08:02:07.696Z,875.00
2023-05-02T08:03:07.996Z,950.00
2023-05-02T08:04:08.030Z,1031.00
2023-05-02T08:05:07.975Z,1043.00
2023-05-02T08:06:07.817Z,1090.00
2023-05-02T08:07:07.839Z,1121.00
2023-05-02T08:08:07.894Z,1149.00
2023-05-02T08:09:07.918Z,1116.00
2023-05-02T08:10:07.923Z,1122.00
2023-05-02T08:11:07.940Z,1124.00
2023-05-02T08:12:07.985Z,1150.00
2023-05-02T08:13:08.399Z,1154.00
2023-05-02T08:14:08.002Z,1160.00
2023-05-02T08:15:08.037Z,1191.00
2023-05-02T08:16:08.102Z,1223.00
2023-05-02T08:17:08.072Z,1258.00
2023-05-02T08:18:08.147Z,1287.00
2023-05-02T08:19:08.160Z,1312.00
2023-05-02T08:20:08.206Z,1323.00
2023-05-02T08:21:08.249Z,1348.00
2023-05-02T08:22:08.314Z,1362.00
2023-05-02T08:23:08.352Z,1377.00
2023-05-02T08:24:08.396Z,1395.00
2023-05-02T08:25:08.455Z,1398.00
2023-05-02T08:26:08.530Z,1417.00
2023-05-02T08:27:08.564Z,1428.00
2023-05-02T08:28:08.617Z,1468.00
2023-05-02T08:29:08.629Z,1476.00
2023-05-02T08:30:09.123Z,1495.00
2023-05-02T08:31:08.779Z,1500.00
2023-05-02T08:32:08.803Z,1506.00
2023-05-02T08:33:08.954Z,1506.00
2023-05-02T08:34:08.834Z,1513.00
2023-05-02T08:35:08.861Z,1536.00
2023-05-02T08:36:08.917Z,1543.00
2023-05-02T08:37:08.909Z,1566.00
2023-05-02T08:38:08.971Z,1564.00
2023-05-02T08:39:08.965Z,1576.00
2023-05-02T08:40:08.976Z,1605.00
2023-05-02T08:41:09.018Z,1614.00
2023-05-02T08:42:09.033Z,1487.00
2023-05-02T08:43:09.409Z,1364.00
2023-05-02T08:44:09.135Z,1359.00
2023-05-02T08:45:09.188Z,1376.00
2023-05-02T08:46:09.232Z,1280.00
2023-05-02T08:47:09.339Z,1313.00
2023-05-02T08:48:09.425Z,1355.00
2023-05-02T08:49:09.395Z,1311.00
2023-05-02T08:50:09.477Z,1067.00
2023-05-02T08:51:09.438Z,1092.00
2023-05-02T08:52:09.483Z,1153.00
2023-05-02T08:53:09.486Z,1169.00
2023-05-02T08:54:09.554Z,1107.00
2023-05-02T08:55:09.552Z,1073.00
2023-05-02T08:56:09.543Z,1166.00
2023-05-02T08:57:09.562Z,1135.00
2023-05-02T08:58:09.564Z,1069.00
2023-05-02T08:59:09.613Z,1101.00
2023-05-02T09:00:09.614Z,1133.00
2023-05-02T09:01:09.652Z,1204.00
2023-05-02T09:02:09.622Z,1297.00
2023-05-02T09:03:09.648Z,1385.00
2023-05-02T09:04:09.728Z,1433.00
2023-05-02T09:05:09.712Z,1471.00
2023-05-02T09:06:09.846Z,1490.00
2023-05-02T09:07:10.909Z,1502.00
2023-05-02T09:08:09.869Z,1525.00
2023-05-02T09:09:09.911Z,1582.00
2023-05-02T09:10:09.966Z,1596.00
2023-05-02T09:11:09.947Z,1624.00
2023-05-02T09:12:10.260Z,1669.00
2023-05-02T09:13:10.039Z,1689.00
2023-05-02T09:14:10.017Z,1714.00
2023-05-02T09:15:10.036Z,1737.00
2023-05-02T09:16:10.112Z,1733.00
2023-05-02T09:17:10.202Z,1760.00
2023-05-02T09:18:10.085Z,1781.00
2023-05-02T09:19:10.111Z,1810.00
2023-05-02T09:20:10.087Z,1841.00
2023-05-02T09:21:10.130Z,1851.00
2023-05-02T09:22:10.141Z,1858.00
2023-05-02T09:23:10.155Z,1882.00
2023-05-02T09:24:10.150Z,1903.00
2023-05-02T09:25:10.182Z,1919.00
2023-05-02T09:26:10.206Z,1938.00
2023-05-02T09:27:10.216Z,1945.00
2023-05-02T09:28:10.245Z,1973.00
2023-05-02T09:29:10.257Z,1981.00
2023-05-02T09:30:10.265Z,1999.00
2023-05-02T09:31:10.290Z,2022.00
2023-05-02T09:32:10.402Z,2034.00
2023-05-02T09:33:10.438Z,2051.00
2023-05-02T09:34:10.343Z,2058.00
2023-05-02T09:35:10.358Z,2069.00
2023-05-02T09:36:10.425Z,2088.00
2023-05-02T09:37:10.442Z,2114.00
2023-05-02T09:38:11.092Z,2121.00
2023-05-02T09:39:10.492Z,2144.00
2023-05-02T09:40:10.502Z,2158.00
2023-05-02T09:41:10.540Z,2176.00
2023-05-02T09:42:10.575Z,2187.00
2023-05-02T09:43:10.636Z,2211.00
2023-05-02T09:44:10.683Z,2199.00
2023-05-02T09:45:10.748Z,2204.00
2023-05-02T09:46:10.795Z,2283.00
2023-05-02T09:47:10.841Z,2326.00
2023-05-02T09:48:10.968Z,2270.00
2023-05-02T09:49:10.893Z,2134.00
2023-05-02T09:50:10.910Z,2057.00
2023-05-02T09:51:10.928Z,1957.00
2023-05-02T09:52:10.994Z,1741.00
2023-05-02T09:53:11.430Z,1828.00
2023-05-02T09:54:10.983Z,1735.00
2023-05-02T09:55:11.011Z,1581.00
2023-05-02T09:56:11.060Z,1392.00
2023-05-02T09:57:11.444Z,1494.00
2023-05-02T09:58:11.396Z,1570.00
2023-05-02T09:59:11.077Z,1614.00
2023-05-02T10:00:11.236Z,1679.00
2023-05-02T10:01:11.187Z,1711.00
2023-05-02T10:02:11.305Z,1736.00
2023-05-02T10:03:11.511Z,1772.00
2023-05-02T10:04:11.223Z,1788.00
2023-05-02T10:05:11.197Z,1811.00
2023-05-02T10:06:11.281Z,1835.00
2023-05-02T10:07:11.240Z,1865.00
2023-05-02T10:08:11.404Z,1887.00
2023-05-02T10:09:11.272Z,1921.00
2023-05-02T10:10:11.285Z,1949.00
2023-05-02T10:11:11.333Z,1964.00
2023-05-02T10:12:11.411Z,1987.00
2023-05-02T10:13:11.438Z,2003.00
2023-05-02T10:14:11.457Z,2032.00
2023-05-02T10:15:11.507Z,2048.00
2023-05-02T10:16:11.608Z,2077.00
2023-05-02T10:17:11.618Z,2104.00
2023-05-02T10:18:11.686Z,2124.00
2023-05-02T10:19:11.725Z,2132.00
2023-05-02T10:20:11.746Z,2156.00
2023-05-02T10:21:11.829Z,2171.00
2023-05-02T10:22:11.825Z,2187.00
2023-05-02T10:23:11.856Z,2211.00
2023-05-02T10:24:11.960Z,2225.00
2023-05-02T10:25:11.979Z,2231.00
2023-05-02T10:26:12.042Z,2260.00
2023-05-02T10:27:12.084Z,2269.00
2023-05-02T10:28:12.140Z,2279.00
2023-05-02T10:29:12.187Z,2285.00
2023-05-02T10:30:12.227Z,2300.00
2023-05-02T10:31:12.279Z,2312.00
2023-05-02T10:32:12.300Z,2325.00
2023-05-02T10:33:12.333Z,2326.00
2023-05-02T10:34:12.355Z,2333.00
2023-05-02T10:35:12.406Z,2345.00
2023-05-02T10:36:12.461Z,2370.00
2023-05-02T10:37:12.494Z,2373.00
2023-05-02T10:38:12.486Z,2383.00
2023-05-02T10:39:12.503Z,2404.00
2023-05-02T10:40:12.636Z,2328.00
2023-05-02T10:41:12.614Z,2360.00
2023-05-02T10:42:12.667Z,2183.00
2023-05-02T10:43:12.737Z,2163.00
2023-05-02T10:44:12.761Z,1971.00
2023-05-02T10:45:12.784Z,1924.00
2023-05-02T10:46:12.914Z,2011.00
2023-05-02T10:47:12.894Z,1572.00
2023-05-02T10:48:13.020Z,1424.00
2023-05-02T10:49:12.916Z,1091.00
2023-05-02T10:50:12.935Z,1104.00
2023-05-02T10:51:12.966Z,1079.00
2023-05-02T10:52:12.976Z,1186.00
2023-05-02T10:53:13.020Z,1244.00
2023-05-02T10:54:12.987Z,1352.00
2023-05-02T10:55:14.027Z,1353.00
2023-05-02T10:56:13.056Z,1353.00
2023-05-02T10:57:12.990Z,1393.00
2023-05-02T10:58:13.470Z,1454.00
2023-05-02T10:59:13.008Z,1512.00
2023-05-02T11:00:12.961Z,1532.00
2023-05-02T11:01:13.004Z,1581.00
2023-05-02T11:02:13.022Z,1565.00
2023-05-02T11:03:13.469Z,1540.00
2023-05-02T11:04:12.951Z,1589.00
2023-05-02T11:05:12.956Z,1625.00
2023-05-02T11:06:12.949Z,1644.00
2023-05-02T11:07:12.902Z,1644.00
2023-05-02T11:08:12.958Z,1662.00
2023-05-02T11:09:12.983Z,1658.00
2023-05-02T11:10:12.993Z,1647.00
2023-05-02T11:11:13.043Z,1662.00
2023-05-02T11:12:13.120Z,1654.00
2023-05-02T11:13:13.144Z,1653.00
2023-05-02T11:14:14.351Z,1659.00
2023-05-02T11:15:13.186Z,1670.00
2023-05-02T11:16:13.232Z,1678.00
2023-05-02T11:17:13.214Z,1682.00
2023-05-02T11:18:13.591Z,1704.00
2023-05-02T11:19:13.258Z,1695.00
2023-05-02T11:20:13.330Z,1679.00
2023-05-02T11:21:13.358Z,1692.00
2023-05-02T11:22:13.932Z,1739.00
2023-05-02T11:23:13.434Z,1752.00
2023-05-02T11:24:13.390Z,1771.00
2023-05-02T11:25:13.381Z,1782.00
2023-05-02T11:26:13.414Z,1814.00
2023-05-02T11:27:13.419Z,1790.00
2023-05-02T11:28:13.471Z,1800.00
2023-05-02T11:29:13.463Z,1832.00
2023-05-02T11:30:13.551Z,1849.00
2023-05-02T11:31:13.485Z,1900.00
2023-05-02T11:32:13.572Z,1941.00
2023-05-02T11:33:13.599Z,1952.00
2023-05-02T11:34:13.587Z,1966.00
2023-05-02T11:35:13.557Z,1999.00
2023-05-02T11:36:13.589Z,1949.00
2023-05-02T11:37:13.632Z,1590.00
2023-05-02T11:38:13.954Z,1165.00
2023-05-02T11:39:13.819Z,988.00
2023-05-02T11:40:13.827Z,626.00
2023-05-02T11:41:13.897Z,488.00
2023-05-02T11:42:13.808Z,475.00
2023-05-02T11:43:13.861Z,468.00
2023-05-02T11:44:13.858Z,501.00
2023-05-02T11:45:13.875Z,496.00
2023-05-02T11:46:13.975Z,496.00
2023-05-02T11:47:13.999Z,454.00
2023-05-02T11:48:14.036Z,500.00
2023-05-02T11:49:15.025Z,598.00
2023-05-02T11:50:14.118Z,680.00
2023-05-02T11:51:14.209Z,670.00
2023-05-02T11:52:14.213Z,661.00
2023-05-02T11:53:14.254Z,696.00
2023-05-02T11:54:14.302Z,780.00
2023-05-02T11:55:14.372Z,763.00
2023-05-02T11:56:14.430Z,943.00
2023-05-02T11:57:14.472Z,709.00
2023-05-02T11:58:14.496Z,661.00
2023-05-02T11:59:14.572Z,619.00
2023-05-02T12:00:14.621Z,716.00
2023-05-02T12:01:14.943Z,843.00
2023-05-02T12:02:14.733Z,958.00
2023-05-02T12:03:14.889Z,1050.00
2023-05-02T12:04:14.788Z,875.00
2023-05-02T12:05:14.890Z,966.00
2023-05-02T12:06:15.271Z,1083.00
2023-05-02T12:07:14.858Z,1159.00
2023-05-02T12:08:14.834Z,971.00
2023-05-02T12:09:14.902Z,754.00
2023-05-02T12:10:14.938Z,676.00
2023-05-02T12:11:14.928Z,653.00
2023-05-02T12:12:15.016Z,667.00
2023-05-02T12:13:15.037Z,725.00
2023-05-02T12:14:15.089Z,737.00
2023-05-02T12:15:15.144Z,746.00
2023-05-02T12:16:15.370Z,665.00
2023-05-02T12:17:15.250Z,698.00
2023-05-02T12:18:15.315Z,865.00
2023-05-02T12:19:15.413Z,887.00